Time;durP1;ratioP1;P1;durP2;ratioP2;P2;SDS_P1;SDS_P2;PMS_P1;PMS_P2;Temp;Humidity;BMP_temperature;BMP_pressure;BME280_temperature;BME280_humidity;BME280_pressure;Samples;Min_cycle;Max_cycle;Signal;HPM_P1;HPM_P2
2023/01/30 00:01:06;;;;;;;33.97;27.70;;;;;;;3.13;100.00;101718.28;5050212;28;20025;-63
2023/01/30 00:03:31;;;;;;;35.17;27.00;;;;;;;3.16;100.00;101712.50;5050073;28;20021;-63
2023/01/30 00:05:57;;;;;;;37.30;27.13;;;;;;;3.19;100.00;101698.28;5046818;28;20017;-64
2023/01/30 00:08:22;;;;;;;37.00;27.13;;;;;;;3.25;100.00;101682.47;5055183;28;20094;-64
2023/01/30 00:10:48;;;;;;;38.17;27.37;;;;;;;3.30;100.00;101678.59;5058441;28;20048;-64
2023/01/30 00:13:14;;;;;;;35.80;26.17;;;;;;;3.31;100.00;101693.16;5048859;28;20075;-64
2023/01/30 00:15:40;;;;;;;38.67;28.03;;;;;;;3.35;100.00;101689.16;5057158;28;20032;-64
2023/01/30 00:18:06;;;;;;;37.27;27.30;;;;;;;3.41;100.00;101696.44;5051550;28;20439;-64
2023/01/30 00:20:32;;;;;;;40.57;27.77;;;;;;;3.40;100.00;101682.72;5062068;28;20476;-64
2023/01/30 00:22:57;;;;;;;36.73;28.20;;;;;;;3.45;100.00;101677.97;5056319;28;20032;-64
2023/01/30 00:25:24;;;;;;;37.07;27.10;;;;;;;3.46;100.00;101682.28;5053682;28;20029;-63
2023/01/30 00:27:49;;;;;;;35.80;26.67;;;;;;;3.44;100.00;101678.72;5059909;28;20027;-64
2023/01/30 00:30:14;;;;;;;32.43;26.13;;;;;;;3.44;100.00;101673.59;5049583;28;20396;-64
2023/01/30 00:32:39;;;;;;;34.63;25.93;;;;;;;3.43;100.00;101671.81;5048302;28;20063;-64
2023/01/30 00:35:06;;;;;;;38.27;27.27;;;;;;;3.47;100.00;101689.22;5047017;28;20377;-64
2023/01/30 00:37:31;;;;;;;35.37;25.33;;;;;;;3.51;100.00;101675.84;5046679;28;20481;-64
2023/01/30 00:39:56;;;;;;;35.57;27.20;;;;;;;3.52;100.00;101672.50;5051276;28;20024;-64
2023/01/30 00:47:50;;;;;;;36.77;27.07;;;;;;;3.56;100.00;101664.25;5047421;28;20035;-64
2023/01/30 00:50:15;;;;;;;32.60;26.27;;;;;;;3.57;100.00;101667.72;5046871;28;20065;-64
2023/01/30 00:52:40;;;;;;;33.53;26.33;;;;;;;3.59;100.00;101656.81;5046292;28;20083;-64
2023/01/30 00:55:06;;;;;;;32.10;26.37;;;;;;;3.59;100.00;101663.59;5046635;28;20035;-63
2023/01/30 00:57:31;;;;;;;33.50;25.77;;;;;;;3.57;100.00;101666.06;5046748;28;20025;-64
2023/01/30 00:59:57;;;;;;;37.43;26.80;;;;;;;3.58;100.00;101664.38;5046561;28;20420;-64
2023/01/30 01:02:22;;;;;;;38.20;26.57;;;;;;;3.61;100.00;101664.59;5045548;28;20079;-64
2023/01/30 01:04:47;;;;;;;34.57;27.33;;;;;;;3.63;100.00;101651.91;5046248;28;20021;-64
2023/01/30 01:07:13;;;;;;;33.93;26.67;;;;;;;3.67;100.00;101652.22;5046383;28;20033;-64
2023/01/30 01:09:39;;;;;;;32.83;25.93;;;;;;;3.67;100.00;101646.22;5046253;28;21954;-64
2023/01/30 01:12:05;;;;;;;41.40;28.67;;;;;;;3.70;100.00;101649.91;5049487;28;20029;-64
2023/01/30 01:14:31;;;;;;;36.47;26.37;;;;;;;3.71;100.00;101640.53;5050576;28;20104;-64
2023/01/30 01:16:56;;;;;;;34.90;26.53;;;;;;;3.72;100.00;101637.19;5049559;28;20023;-64
2023/01/30 01:19:22;;;;;;;31.17;27.17;;;;;;;3.74;100.00;101634.75;5050146;28;20402;-64
2023/01/30 01:21:47;;;;;;;33.30;27.43;;;;;;;3.76;100.00;101636.63;5052922;28;20034;-64
2023/01/30 01:24:13;;;;;;;32.93;26.77;;;;;;;3.75;100.00;101629.72;5059250;28;20025;-64
2023/01/30 01:26:40;;;;;;;39.33;27.17;;;;;;;3.75;100.00;101642.53;5065085;28;20029;-64
2023/01/30 01:29:06;;;;;;;35.80;27.83;;;;;;;3.79;100.00;101639.44;5054709;28;20098;-64
2023/01/30 01:31:31;;;;;;;34.43;26.93;;;;;;;3.82;100.00;101631.94;5051576;28;20033;-64
2023/01/30 01:33:56;;;;;;;30.73;26.23;;;;;;;3.82;100.00;101614.00;5058233;28;20488;-64
2023/01/30 01:36:22;;;;;;;32.73;26.53;;;;;;;3.90;100.00;101617.13;5054538;28;20032;-64
2023/01/30 01:38:47;;;;;;;32.92;26.15;;;;;;;3.93;100.00;101619.00;5051382;28;20091;-64
2023/01/30 01:41:15;;;;;;;35.27;28.00;;;;;;;3.95;100.00;101625.13;5049878;28;20343;-64
2023/01/30 01:44:01;;;;;;;33.00;25.73;;;;;;;3.97;100.00;101624.44;5062823;28;20035;-64
2023/01/30 01:46:58;;;;;;;32.23;25.87;;;;;;;3.99;100.00;101609.19;5050102;28;20053;-64
2023/01/30 01:49:35;;;;;;;33.93;26.07;;;;;;;4.08;100.00;101606.41;5049679;28;20079;-64
2023/01/30 01:52:05;;;;;;;34.30;27.85;;;;;;;4.11;100.00;101590.31;5051237;28;20049;-64
2023/01/30 01:54:36;;;;;;;35.33;26.90;;;;;;;4.15;100.00;101584.63;5049459;28;20032;-64
2023/01/30 01:57:05;;;;;;;35.72;26.42;;;;;;;4.14;100.00;101582.81;5061154;28;20024;-64
2023/01/30 01:59:38;;;;;;;33.47;25.10;;;;;;;4.18;100.00;101569.44;5050012;28;20025;-64
2023/01/30 02:02:09;;;;;;;30.60;25.13;;;;;;;4.19;100.00;101573.81;5049707;28;20495;-64
2023/01/30 02:07:24;;;;;;;34.70;25.87;;;;;;;4.22;100.00;101574.00;5049122;28;20090;-64
2023/01/30 02:09:50;;;;;;;34.03;26.75;;;;;;;4.24;100.00;101569.88;5049029;28;20484;-64
2023/01/30 02:12:16;;;;;;;29.92;24.17;;;;;;;4.26;100.00;101573.44;5060324;28;20033;-64
2023/01/30 02:14:42;;;;;;;33.73;26.67;;;;;;;4.29;100.00;101573.66;5049207;28;20087;-64
2023/01/30 02:17:08;;;;;;;29.60;25.50;;;;;;;4.26;100.00;101576.00;5049206;28;20037;-64
2023/01/30 02:19:59;;;;;;;31.20;25.00;;;;;;;4.28;100.00;101560.72;5050524;28;20470;-64
2023/01/30 02:22:41;;;;;;;33.97;24.58;;;;;;;4.30;100.00;101554.88;5052837;28;20480;-64
2023/01/30 02:25:18;;;;;;;30.98;25.13;;;;;;;4.31;100.00;101550.66;5053476;28;20040;-64
2023/01/30 02:28:04;;;;;;;30.10;23.80;;;;;;;4.33;100.00;101546.53;5054503;28;20064;-64
2023/01/30 02:30:40;;;;;;;33.75;25.58;;;;;;;4.32;100.00;101540.50;5048436;28;20036;-64
2023/01/30 02:33:23;;;;;;;33.35;25.83;;;;;;;4.39;100.00;101543.50;5061892;28;20571;-64
2023/01/30 02:36:18;;;;;;;34.42;25.42;;;;;;;4.37;100.00;101532.22;5048699;28;20032;-64
2023/01/30 02:39:08;;;;;;;35.87;25.30;;;;;;;4.36;100.00;101521.06;5049137;28;20044;-64
2023/01/30 02:41:53;;;;;;;34.53;27.17;;;;;;;4.35;100.00;101529.56;5047839;28;20028;-64
2023/01/30 02:45:15;;;;;;;33.45;25.92;;;;;;;4.37;100.00;101529.66;5048555;28;20457;-64
2023/01/30 02:47:48;;;;;;;35.05;25.80;;;;;;;4.35;100.00;101538.94;5023772;28;20033;-64
2023/01/30 02:50:21;;;;;;;30.33;24.83;;;;;;;4.33;100.00;101537.13;5047127;28;20125;-64
2023/01/30 02:52:47;;;;;;;36.22;26.70;;;;;;;4.32;100.00;101532.78;5051181;28;20056;-64
2023/01/30 02:55:22;;;;;;;37.28;27.27;;;;;;;4.33;100.00;101529.44;5058747;28;20024;-64
2023/01/30 02:57:47;;;;;;;32.85;27.52;;;;;;;4.33;100.00;101531.13;5048168;28;20021;-64
2023/01/30 03:00:17;;;;;;;35.22;28.10;;;;;;;4.33;100.00;101528.56;5048294;28;20392;-64
2023/01/30 03:03:07;;;;;;;37.40;28.27;;;;;;;4.36;100.00;101527.88;5048487;28;20024;-64
2023/01/30 03:05:57;;;;;;;33.50;27.70;;;;;;;4.34;100.00;101520.06;5047527;28;20348;-64
2023/01/30 03:08:28;;;;;;;31.77;26.85;;;;;;;4.34;100.00;101509.81;5047637;28;20044;-64
2023/01/30 03:10:57;;;;;;;;;;;;;;;4.35;100.00;101508.13;5048854;28;20104;-64
2023/01/30 03:13:54;;;;;;;36.78;27.15;;;;;;;4.33;100.00;101508.91;5048376;28;20077;-64
2023/01/30 03:16:46;;;;;;;35.08;28.40;;;;;;;4.37;100.00;101498.88;5054538;28;20032;-64
2023/01/30 03:19:12;;;;;;;35.50;28.97;;;;;;;4.35;100.00;101496.19;5048580;28;20284;-64
2023/01/30 03:21:43;;;;;;;39.57;31.83;;;;;;;4.35;100.00;101505.56;5047921;28;20056;-64
2023/01/30 03:24:09;;;;;;;37.17;30.15;;;;;;;4.33;100.00;101500.34;5048899;28;20033;-64
2023/01/30 03:27:02;;;;;;;42.92;31.08;;;;;;;4.30;100.00;101495.88;5047097;28;20039;-64
2023/01/30 03:29:27;;;;;;;41.17;30.47;;;;;;;4.29;100.00;101499.22;5046388;28;20370;-64
2023/01/30 03:31:53;;;;;;;42.22;30.00;;;;;;;4.28;100.00;101491.44;5049755;28;20030;-64
2023/01/30 03:34:18;;;;;;;42.33;31.77;;;;;;;4.26;100.00;101490.44;5051760;28;20480;-64
2023/01/30 03:36:43;;;;;;;42.13;30.37;;;;;;;4.25;100.00;101493.75;5045237;28;20024;-65
2023/01/30 03:39:09;;;;;;;41.85;29.88;;;;;;;4.23;100.00;101485.97;5050019;28;20029;-64
2023/01/30 03:41:34;;;;;;;38.93;31.40;;;;;;;4.25;100.00;101479.28;5056235;28;20392;-64
2023/01/30 03:44:00;;;;;;;40.77;31.17;;;;;;;4.24;100.00;101482.63;5055049;28;20024;-64
2023/01/30 03:46:25;;;;;;;46.77;32.53;;;;;;;4.25;100.00;101484.41;5054504;28;20032;-64
2023/01/30 03:48:50;;;;;;;39.60;31.87;;;;;;;4.23;100.00;101485.09;5052161;28;20048;-64
2023/01/30 03:51:15;;;;;;;39.90;31.47;;;;;;;4.25;100.00;101476.69;5053645;28;20152;-64
2023/01/30 03:53:41;;;;;;;40.63;30.70;;;;;;;4.26;100.00;101480.16;5060167;28;20032;-64
2023/01/30 03:56:06;;;;;;;41.17;31.23;;;;;;;4.23;100.00;101480.84;5047713;28;20033;-64
2023/01/30 03:58:31;;;;;;;38.97;30.33;;;;;;;4.22;100.00;101479.06;5049627;28;20052;-64
2023/01/30 04:00:56;;;;;;;41.15;32.58;;;;;;;4.23;100.00;101483.41;5058129;28;20120;-64
2023/01/30 04:03:22;;;;;;;43.80;32.30;;;;;;;4.23;100.00;101485.97;5049561;28;20032;-64
2023/01/30 04:05:48;;;;;;;41.43;32.03;;;;;;;4.23;100.00;101485.09;5059092;28;20025;-64
2023/01/30 04:08:13;;;;;;;39.83;31.83;;;;;;;4.26;100.00;101487.88;5052376;28;20036;-64
2023/01/30 04:10:39;;;;;;;40.50;31.73;;;;;;;4.28;100.00;101483.72;5046897;28;20029;-64
2023/01/30 04:13:04;;;;;;;43.00;33.77;;;;;;;4.25;100.00;101491.19;5047355;28;20021;-64
2023/01/30 04:15:29;;;;;;;42.30;31.23;;;;;;;4.25;100.00;101474.13;5047741;28;20025;-64
2023/01/30 04:17:54;;;;;;;44.27;31.90;;;;;;;4.26;100.00;101483.63;5058609;28;20025;-64
2023/01/30 04:20:20;;;;;;;40.13;31.17;;;;;;;4.26;100.00;101486.19;5046934;28;20111;-65
2023/01/30 04:22:45;;;;;;;40.17;31.07;;;;;;;4.27;100.00;101490.53;5047378;28;20544;-65
2023/01/30 04:25:10;;;;;;;37.70;30.60;;;;;;;4.30;100.00;101482.16;5046697;28;20477;-64
2023/01/30 04:27:36;;;;;;;40.50;30.80;;;;;;;4.31;100.00;101471.09;5047333;28;20036;-64
2023/01/30 04:30:01;;;;;;;37.80;30.40;;;;;;;4.33;100.00;101474.66;5046857;28;20033;-64
2023/01/30 04:32:27;;;;;;;42.53;31.40;;;;;;;4.35;100.00;101472.19;5056188;28;20094;-64
2023/01/30 04:34:52;;;;;;;40.00;30.97;;;;;;;4.36;100.00;101463.69;5058583;28;20056;-65
2023/01/30 04:37:17;;;;;;;40.43;30.23;;;;;;;4.38;100.00;101469.84;5058105;28;20452;-64
2023/01/30 04:39:42;;;;;;;39.08;29.30;;;;;;;4.40;100.00;101464.03;5050639;28;20040;-64
2023/01/30 04:42:08;;;;;;;39.25;29.08;;;;;;;4.44;100.00;101468.56;5055190;28;20030;-64
2023/01/30 04:44:33;;;;;;;36.15;27.88;;;;;;;4.44;100.00;101467.69;5064789;28;20025;-64
2023/01/30 04:46:58;;;;;;;35.25;26.80;;;;;;;4.46;100.00;101471.25;5047458;28;20052;-64
2023/01/30 04:49:24;;;;;;;35.50;27.10;;;;;;;4.48;100.00;101459.41;5051445;28;20021;-64
2023/01/30 04:51:49;;;;;;;31.83;25.07;;;;;;;4.51;100.00;101476.69;5050488;28;20049;-64
2023/01/30 04:54:14;;;;;;;34.27;25.63;;;;;;;4.53;100.00;101476.00;5050665;28;20048;-65
2023/01/30 04:56:39;;;;;;;31.15;24.40;;;;;;;4.55;100.00;101479.56;5050054;28;20023;-65
2023/01/30 04:59:05;;;;;;;32.93;24.40;;;;;;;4.59;100.00;101472.09;5050770;28;20031;-65
2023/01/30 05:01:34;;;;;;;31.35;22.13;;;;;;;4.62;100.00;101470.59;5050759;28;20025;-65
2023/01/30 05:04:00;;;;;;;27.15;21.05;;;;;;;4.64;100.00;101470.72;5061095;28;20385;-65
2023/01/30 05:06:26;;;;;;;29.67;21.05;;;;;;;4.65;100.00;101475.03;5051715;28;20052;-64
2023/01/30 05:08:54;;;;;;;29.05;20.38;;;;;;;4.67;100.00;101476.03;5061556;28;20449;-64
2023/01/30 05:11:20;;;;;;;29.33;20.10;;;;;;;4.68;100.00;101480.38;5050382;28;20059;-64
2023/01/30 05:13:46;;;;;;;25.98;18.58;;;;;;;4.71;100.00;101478.03;5053139;28;20033;-64
2023/01/30 05:16:13;;;;;;;23.33;17.27;;;;;;;4.72;100.00;101487.50;5056653;28;20028;-64
2023/01/30 05:18:38;;;;;;;30.10;17.60;;;;;;;4.73;100.00;101479.00;5049886;28;20029;-64
2023/01/30 05:21:06;;;;;;;24.45;17.52;;;;;;;4.77;100.00;101475.84;5057169;28;20017;-64
2023/01/30 05:23:31;;;;;;;21.40;16.27;;;;;;;4.78;100.00;101482.78;5050226;28;20029;-65
2023/01/30 05:25:57;;;;;;;24.88;15.82;;;;;;;4.82;100.00;101482.97;5062894;28;20040;-65
2023/01/30 05:28:22;;;;;;;20.33;14.18;;;;;;;4.84;100.00;101483.97;5050094;28;20025;-65
2023/01/30 05:30:48;;;;;;;23.33;15.48;;;;;;;4.86;100.00;101483.28;5050029;28;20031;-65
2023/01/30 05:33:13;;;;;;;21.60;14.52;;;;;;;4.89;100.00;101477.47;5065131;28;20035;-65
2023/01/30 05:35:44;;;;;;;20.95;13.45;;;;;;;4.88;100.00;101466.28;5051568;28;20032;-65
2023/01/30 05:38:09;;;;;;;18.58;12.20;;;;;;;4.90;100.00;101472.41;5050138;28;20079;-64
2023/01/30 05:40:35;;;;;;;16.65;10.60;;;;;;;4.91;100.00;101470.75;5049729;28;20085;-65
2023/01/30 05:43:00;;;;;;;17.38;10.50;;;;;;;4.94;100.00;101473.50;5049643;28;20037;-65
2023/01/30 05:45:25;;;;;;;16.75;10.43;;;;;;;4.94;100.00;101463.22;5050051;28;20028;-65
2023/01/30 05:47:51;;;;;;;18.10;9.15;;;;;;;4.95;100.00;101465.00;5049662;28;20082;-64
2023/01/30 05:50:17;;;;;;;15.75;8.88;;;;;;;4.97;100.00;101473.69;5053735;28;20055;-65
2023/01/30 05:52:42;;;;;;;13.90;8.68;;;;;;;4.98;100.00;101470.38;5053935;28;20432;-65
2023/01/30 05:55:08;;;;;;;20.45;8.55;;;;;;;4.98;100.00;101465.22;5049507;28;20060;-64
2023/01/30 05:57:33;;;;;;;21.17;8.27;;;;;;;5.00;100.00;101479.03;5049450;28;20037;-65
2023/01/30 05:59:58;;;;;;;17.83;8.30;;;;;;;5.02;100.00;101467.19;5049206;28;20104;-65
2023/01/30 06:02:24;;;;;;;13.43;7.45;;;;;;;5.04;100.00;101486.16;5051871;28;20055;-65
2023/01/30 06:04:49;;;;;;;11.80;6.70;;;;;;;5.07;100.00;101495.75;5049661;28;20057;-65
2023/01/30 06:07:14;;;;;;;14.40;7.70;;;;;;;5.09;100.00;101498.41;5055749;28;20284;-64
2023/01/30 06:09:39;;;;;;;13.88;6.97;;;;;;;5.10;100.00;101484.78;5055926;28;20028;-65
2023/01/30 06:12:06;;;;;;;14.98;7.88;;;;;;;5.11;100.00;101472.03;5055654;28;20017;-65
2023/01/30 06:14:31;;;;;;;9.73;6.10;;;;;;;5.13;100.00;101491.00;5054956;28;20021;-65
2023/01/30 06:16:56;;;;;;;15.75;6.88;;;;;;;5.14;100.00;101495.38;5056215;28;20114;-64
2023/01/30 06:19:21;;;;;;;16.63;6.40;;;;;;;5.15;100.00;101494.56;5048409;28;20025;-64
2023/01/30 06:21:47;;;;;;;13.07;6.40;;;;;;;5.16;100.00;101500.59;5051974;28;20792;-65
2023/01/30 06:24:12;;;;;;;13.60;5.88;;;;;;;5.17;100.00;101507.50;5049962;28;20047;-65
2023/01/30 06:26:37;;;;;;;16.30;5.35;;;;;;;5.16;100.00;101522.03;5048740;28;20028;-65
2023/01/30 06:29:03;;;;;;;15.93;5.60;;;;;;;5.17;100.00;101512.66;5048887;28;20032;-65
2023/01/30 06:31:28;;;;;;;12.80;4.68;;;;;;;5.16;100.00;101522.03;5050772;28;20036;-65
2023/01/30 06:33:53;;;;;;;15.60;4.95;;;;;;;5.15;100.00;101516.78;5052574;28;20056;-65
2023/01/30 06:36:18;;;;;;;11.80;4.72;;;;;;;5.17;100.00;101535.78;5055694;28;20135;-65
2023/01/30 06:38:44;;;;;;;11.02;3.70;;;;;;;5.18;100.00;101529.84;5048637;28;20232;-65
2023/01/30 06:41:09;;;;;;;14.95;4.45;;;;;;;5.16;100.00;101534.00;5053381;28;20086;-65
2023/01/30 06:43:34;;;;;;;12.93;4.13;;;;;;;5.14;100.00;101531.34;5052153;28;20039;-65
2023/01/30 06:46:00;;;;;;;11.02;3.88;;;;;;;5.14;100.00;101527.88;5048115;28;20039;-65
2023/01/30 06:48:25;;;;;;;15.32;4.45;;;;;;;5.11;100.00;101527.69;5048096;28;20512;-65
2023/01/30 06:50:51;;;;;;;9.52;3.05;;;;;;;5.07;100.00;101535.97;5048028;28;20048;-65
2023/01/30 06:53:16;;;;;;;14.10;3.92;;;;;;;5.03;100.00;101534.88;5047590;28;20120;-64
2023/01/30 06:55:41;;;;;;;13.57;3.60;;;;;;;4.99;100.00;101532.88;5052025;28;20021;-65
2023/01/30 06:58:09;;;;;;;10.50;3.67;;;;;;;4.96;100.00;101527.56;5057000;28;20512;-65
2023/01/30 07:00:39;;;;;;;12.43;3.17;;;;;;;4.93;100.00;101515.38;5054371;28;20249;-65
2023/01/30 07:03:05;;;;;;;10.45;3.60;;;;;;;4.89;100.00;101511.72;5050319;28;20052;-65
2023/01/30 07:05:30;;;;;;;14.52;3.30;;;;;;;4.86;100.00;101515.75;5057440;28;20415;-64
2023/01/30 07:07:56;;;;;;;8.75;2.83;;;;;;;4.82;100.00;101524.97;5045918;28;20623;-65
2023/01/30 07:10:22;;;;;;;13.07;2.97;;;;;;;4.79;100.00;101519.59;5052248;28;20028;-65
2023/01/30 07:12:48;;;;;;;7.95;2.42;;;;;;;4.76;100.00;101520.31;5046178;28;20104;-65
2023/01/30 07:15:13;;;;;;;9.63;2.30;;;;;;;4.73;100.00;101532.91;5046602;28;20033;-65
2023/01/30 07:17:40;;;;;;;15.68;3.13;;;;;;;4.72;100.00;101544.00;5047008;28;20025;-65
2023/01/30 07:20:06;;;;;;;11.30;3.22;;;;;;;4.68;100.00;101555.72;5047319;28;20453;-65
2023/01/30 07:22:32;;;;;;;7.22;2.42;;;;;;;4.67;100.00;101558.19;5047384;28;20116;-64
2023/01/30 07:24:57;;;;;;;13.75;3.05;;;;;;;4.65;100.00;101552.06;5053765;28;20032;-65
2023/01/30 07:27:22;;;;;;;13.63;2.55;;;;;;;4.62;100.00;101554.44;5048153;28;20032;-65
2023/01/30 07:29:47;;;;;;;13.48;2.78;;;;;;;4.60;100.00;101556.00;5046277;28;20036;-64
2023/01/30 07:32:18;;;;;;;9.10;2.23;;;;;;;4.58;100.00;101555.91;5055451;28;20017;-65
2023/01/30 07:34:44;;;;;;;14.43;3.33;;;;;;;4.57;100.00;101565.28;5044970;28;20017;-64
2023/01/30 07:37:09;;;;;;;12.50;3.23;;;;;;;4.56;100.00;101562.59;5046653;28;20083;-65
2023/01/30 07:39:35;;;;;;;14.20;2.83;;;;;;;4.54;100.00;101562.50;5046868;28;20502;-65
2023/01/30 07:42:00;;;;;;;13.43;2.90;;;;;;;4.53;100.00;101570.97;5055571;28;20100;-64
2023/01/30 07:44:26;;;;;;;8.18;2.78;;;;;;;4.53;100.00;101573.53;5059469;28;20107;-65
2023/01/30 07:46:51;;;;;;;19.75;3.75;;;;;;;4.53;100.00;101578.66;5048663;28;20519;-65
2023/01/30 07:49:16;;;;;;;9.48;2.83;;;;;;;4.54;100.00;101572.78;5045818;28;20090;-65
2023/01/30 07:51:42;;;;;;;11.07;2.63;;;;;;;4.54;100.00;101572.78;5045237;28;20481;-65
2023/01/30 07:54:07;;;;;;;15.25;2.40;;;;;;;4.53;100.00;101570.09;5045678;28;20029;-65
2023/01/30 07:56:32;;;;;;;9.13;3.17;;;;;;;4.54;100.00;101571.88;5044958;28;20020;-65
2023/01/30 07:58:58;;;;;;;16.23;3.15;;;;;;;4.53;100.00;101570.09;5045694;28;20072;-65
2023/01/30 08:01:23;;;;;;;20.52;2.88;;;;;;;4.52;100.00;101574.34;5045624;28;20027;-64
2023/01/30 08:03:49;;;;;;;11.73;2.70;;;;;;;4.51;100.00;101572.56;5051717;28;20052;-65
2023/01/30 08:06:15;;;;;;;15.32;3.47;;;;;;;4.51;100.00;101570.00;5055800;28;20032;-65
2023/01/30 08:08:41;;;;;;;11.57;2.35;;;;;;;4.52;100.00;101574.34;5046419;28;20111;-64
2023/01/30 08:11:06;;;;;;;11.13;2.63;;;;;;;4.53;100.00;101572.66;5047104;28;20120;-65
2023/01/30 08:13:31;;;;;;;18.88;2.80;;;;;;;4.53;100.00;101588.94;5046874;28;20404;-65
2023/01/30 08:16:01;;;;;;;14.50;2.97;;;;;;;4.53;100.00;101577.81;5047338;28;20082;-65
2023/01/30 08:18:31;;;;;;;12.37;3.17;;;;;;;4.53;100.00;101591.50;5047193;28;20035;-65
2023/01/30 08:21:00;;;;;;;11.95;2.50;;;;;;;4.53;100.00;101585.50;5047131;28;20049;-64
2023/01/30 08:23:26;;;;;;;13.18;3.05;;;;;;;4.52;100.00;101587.19;5059470;28;20854;-65
2023/01/30 08:25:56;;;;;;;14.87;3.57;;;;;;;4.53;100.00;101601.78;5046744;28;20025;-65
2023/01/30 08:28:22;;;;;;;12.80;2.95;;;;;;;4.53;100.00;101609.47;5046052;28;20115;-65
2023/01/30 08:30:48;;;;;;;13.93;3.43;;;;;;;4.54;100.00;101603.56;5046514;28;20473;-65
2023/01/30 08:33:14;;;;;;;13.13;2.67;;;;;;;4.59;100.00;101615.84;5046871;28;20028;-64
2023/01/30 08:35:39;;;;;;;14.70;2.90;;;;;;;4.62;100.00;101610.91;5046793;28;20032;-65
2023/01/30 08:38:07;;;;;;;16.95;3.70;;;;;;;4.66;100.00;101612.88;5046571;28;20017;-65
2023/01/30 08:40:33;;;;;;;13.70;2.10;;;;;;;4.74;100.00;101600.59;5046966;28;20021;-65
2023/01/30 08:42:58;;;;;;;12.52;2.85;;;;;;;5.27;100.00;101599.84;5047084;28;20051;-65
2023/01/30 08:45:24;;;;;;;14.50;2.78;;;;;;;6.06;100.00;101600.53;5046886;28;20048;-64
2023/01/30 08:47:49;;;;;;;12.20;3.17;;;;;;;6.38;100.00;101597.31;5046011;28;20029;-65
2023/01/30 08:50:15;;;;;;;8.30;2.13;;;;;;;6.40;100.00;101614.63;5047037;28;20013;-65
2023/01/30 08:52:40;;;;;;;13.60;2.70;;;;;;;6.28;100.00;101619.03;5046848;28;20580;-65
2023/01/30 08:55:06;;;;;;;9.18;2.53;;;;;;;6.28;100.00;101613.88;5046901;28;20035;-65
2023/01/30 08:57:32;;;;;;;14.82;3.65;;;;;;;6.36;100.00;101612.66;5046675;28;20020;-65
2023/01/30 08:59:57;;;;;;;16.95;3.17;;;;;;;6.54;100.00;101619.72;5059275;28;20021;-65
2023/01/30 09:02:23;;;;;;;11.13;2.25;;;;;;;6.75;100.00;101626.97;5046641;28;20036;-66
2023/01/30 09:04:48;;;;;;;14.65;3.63;;;;;;;6.94;100.00;101635.00;5045062;28;20009;-64
2023/01/30 09:07:13;;;;;;;12.93;2.97;;;;;;;7.10;100.00;101641.09;5046534;28;20435;-65
2023/01/30 09:09:38;;;;;;;12.85;2.67;;;;;;;7.24;100.00;101638.44;5052740;28;20032;-64
2023/01/30 09:12:04;;;;;;;11.88;3.38;;;;;;;7.26;100.00;101640.31;5049821;28;20056;-64
2023/01/30 09:14:29;;;;;;;10.23;2.58;;;;;;;7.16;100.00;101649.19;5053175;28;20067;-64
2023/01/30 09:16:54;;;;;;;14.45;3.95;;;;;;;7.15;100.00;101643.94;5046200;28;20024;-65
2023/01/30 09:19:22;;;;;;;12.75;4.05;;;;;;;7.03;100.00;101659.56;5045451;28;21108;-65
2023/01/30 09:21:49;;;;;;;19.50;3.55;;;;;;;6.83;100.00;101651.53;5053800;28;20093;-65
2023/01/30 09:24:14;;;;;;;15.70;3.72;;;;;;;6.73;100.00;101666.44;5054853;28;20106;-64
2023/01/30 09:26:43;;;;;;;12.70;2.97;;;;;;;6.60;100.00;101653.59;5058475;28;20388;-64
2023/01/30 09:29:09;;;;;;;14.05;2.83;;;;;;;6.51;100.00;101663.34;5056400;28;20539;-64
2023/01/30 09:31:34;;;;;;;12.25;3.08;;;;;;;6.43;100.00;101661.16;5054126;28;20028;-64
2023/01/30 09:34:00;;;;;;;8.25;2.83;;;;;;;6.38;100.00;101652.28;5056282;28;20028;-64
2023/01/30 09:36:25;;;;;;;15.38;2.47;;;;;;;6.34;100.00;101658.00;5059775;28;20074;-64
2023/01/30 09:38:51;;;;;;;13.77;3.75;;;;;;;6.30;100.00;101668.91;5057353;28;20024;-64
2023/01/30 09:41:37;;;;;;;14.93;3.33;;;;;;;6.26;100.00;101667.81;5058239;28;20089;-64
2023/01/30 09:44:31;;;;;;;10.88;3.33;;;;;;;6.23;100.00;101683.97;5057573;28;20078;-64
2023/01/30 09:47:11;;;;;;;12.38;2.83;;;;;;;6.19;100.00;101681.13;5059021;28;20495;-64
2023/01/30 09:50:05;;;;;;;11.43;3.58;;;;;;;6.15;100.00;101669.75;5057214;28;20029;-64
2023/01/30 09:52:53;;;;;;;11.48;2.42;;;;;;;6.13;100.00;101671.31;5058020;28;20131;-64
2023/01/30 09:55:28;;;;;;;14.02;2.92;;;;;;;6.07;100.00;101682.13;5057033;28;20021;-64
2023/01/30 09:57:56;;;;;;;15.30;2.60;;;;;;;6.05;100.00;101675.03;5051801;28;20517;-64
2023/01/30 10:00:36;;;;;;;14.57;3.42;;;;;;;6.01;100.00;101687.72;5054651;28;20016;-64
2023/01/30 10:03:36;;;;;;;10.05;2.20;;;;;;;6.05;100.00;101685.34;5049531;28;20028;-65
2023/01/30 10:06:09;;;;;;;7.70;2.25;;;;;;;6.09;100.00;101685.69;5049197;28;20028;-64
2023/01/30 10:08:54;;;;;;;9.80;2.45;;;;;;;6.12;100.00;101675.56;5048606;28;20021;-64
2023/01/30 10:11:39;;;;;;;11.82;2.60;;;;;;;6.15;100.00;101695.47;5049133;28;20116;-64
2023/01/30 10:14:15;;;;;;;11.30;2.60;;;;;;;6.14;100.00;101703.97;5049039;28;20390;-65
2023/01/30 10:16:49;;;;;;;10.25;2.00;;;;;;;6.13;100.00;101702.22;5049094;28;20056;-64
2023/01/30 10:19:39;;;;;;;10.98;2.63;;;;;;;6.13;100.00;101699.63;5048148;28;20033;-65
2023/01/30 10:22:34;;;;;;;12.75;2.58;;;;;;;6.11;100.00;101707.25;5051115;28;20064;-64
2023/01/30 10:25:26;;;;;;;13.68;2.53;;;;;;;6.09;100.00;101700.22;5058339;28;20020;-64
2023/01/30 10:28:00;;;;;;;13.98;2.47;;;;;;;6.07;100.00;101707.84;5048721;28;20067;-64
2023/01/30 10:30:25;;;;;;;16.88;2.42;;;;;;;6.05;100.00;101711.06;5048679;28;20422;-64
2023/01/30 10:33:04;;;;;;;15.70;3.22;;;;;;;6.03;100.00;101705.81;5051763;28;20032;-64
2023/01/30 10:35:34;;;;;;;13.18;2.40;;;;;;;5.99;100.00;101725.31;5050908;28;20489;-65
2023/01/30 10:38:05;;;;;;;10.05;3.08;;;;;;;5.97;100.00;101713.16;5048363;28;20025;-64
2023/01/30 10:40:45;;;;;;;9.27;2.58;;;;;;;5.97;100.00;101718.31;5048012;28;20028;-64
2023/01/30 10:43:32;;;;;;;7.97;2.33;;;;;;;5.96;100.00;101722.56;5052461;28;20082;-65
2023/01/30 10:46:04;;;;;;;9.48;2.15;;;;;;;5.96;100.00;101727.69;5053175;28;20191;-65
2023/01/30 10:48:50;;;;;;;10.30;2.72;;;;;;;5.95;100.00;101730.19;5047753;28;20377;-65
2023/01/30 10:51:31;;;;;;;11.07;2.53;;;;;;;5.96;100.00;101739.66;5047731;28;20037;-65
2023/01/30 10:53:59;;;;;;;12.65;2.90;;;;;;;5.92;100.00;101743.72;5047539;28;20029;-65
2023/01/30 10:56:36;;;;;;;10.05;1.92;;;;;;;5.89;100.00;101730.66;5048782;28;20033;-65
2023/01/30 10:59:19;;;;;;;6.53;2.13;;;;;;;5.84;100.00;101730.38;5048005;28;20016;-65
2023/01/30 11:02:02;;;;;;;8.20;2.13;;;;;;;5.84;100.00;101735.53;5048307;28;20082;-65
2023/01/30 11:04:42;;;;;;;11.80;2.42;;;;;;;5.83;100.00;101732.84;5048579;28;20027;-65
2023/01/30 11:07:09;;;;;;;10.38;2.53;;;;;;;5.81;100.00;101742.13;5048230;28;20021;-65
2023/01/30 11:09:46;;;;;;;11.30;1.88;;;;;;;5.80;100.00;101745.47;5047933;28;20052;-65
2023/01/30 11:12:11;;;;;;;10.70;1.60;;;;;;;5.80;100.00;101742.91;5048291;28;20033;-65
2023/01/30 11:14:57;;;;;;;4.82;1.75;;;;;;;5.79;100.00;101746.28;5046871;28;20547;-65
2023/01/30 11:17:38;;;;;;;12.93;2.10;;;;;;;5.79;100.00;101742.03;5047912;28;20108;-65
2023/01/30 11:20:18;;;;;;;11.75;2.65;;;;;;;5.79;100.00;101731.75;5047066;28;20036;-65
2023/01/30 11:22:51;;;;;;;13.60;2.80;;;;;;;5.80;100.00;101743.81;5052937;28;20241;-65
2023/01/30 11:25:20;;;;;;;13.45;2.67;;;;;;;5.83;100.00;101732.84;5047849;28;20033;-65
2023/01/30 11:28:00;;;;;;;8.70;2.45;;;;;;;5.88;100.00;101736.63;5046377;28;20121;-65
2023/01/30 11:30:33;;;;;;;11.80;2.50;;;;;;;5.94;100.00;101729.28;5055626;28;20087;-65
2023/01/30 11:33:16;;;;;;;12.02;2.33;;;;;;;5.98;100.00;101739.00;5049134;28;20056;-65